Terminal Aerodrome Forecast
Issued by NWS

Home | Current Version | Previous Version | Text Only | Print | Product List | Glossary On
Versions: 1 2 3 4 5 6 7 8 9 10 11 12 13 14 15 16 17 18 19 20 21 22 23 24 25 26 27 28 29 30 31 32 33
000
FTUS43 KLSX 292300
TAFUIN
TAF
KUIN 292323Z 3000/3024 19008KT P6SM VCTS BKN050CB
     FM300100 19007KT P6SM BKN060
     FM301000 21007KT P6SM SCT020 BKN100
     FM301500 25009KT P6SM SCT030 BKN120=

USA.gov is the U.S. government's official web portal to all federal, state and local government web resources and services.